sensor_id;sensor_type;location;lat;lon;timestamp;P1;durP1;ratioP1;P2;durP2;ratioP2
15273;SDS011;7738;49.532;11.156;2023-03-23T00:01:38;3.70;;;1.90;;
15273;SDS011;7738;49.532;11.156;2023-03-23T00:04:09;4.35;;;1.67;;
15273;SDS011;7738;49.532;11.156;2023-03-23T00:06:40;7.20;;;2.30;;
15273;SDS011;7738;49.532;11.156;2023-03-23T00:09:14;4.45;;;1.98;;
15273;SDS011;7738;49.532;11.156;2023-03-23T00:11:50;9.20;;;2.33;;
15273;SDS011;7738;49.532;11.156;2023-03-23T00:14:23;6.35;;;2.30;;
15273;SDS011;7738;49.532;11.156;2023-03-23T00:16:53;4.15;;;2.25;;
15273;SDS011;7738;49.532;11.156;2023-03-23T00:19:24;5.85;;;1.77;;
15273;SDS011;7738;49.532;11.156;2023-03-23T00:21:54;5.05;;;1.70;;
15273;SDS011;7738;49.532;11.156;2023-03-23T00:24:29;5.28;;;2.15;;
15273;SDS011;7738;49.532;11.156;2023-03-23T00:27:00;5.35;;;1.65;;
15273;SDS011;7738;49.532;11.156;2023-03-23T00:29:30;4.75;;;1.98;;
15273;SDS011;7738;49.532;11.156;2023-03-23T00:32:01;3.30;;;1.95;;
15273;SDS011;7738;49.532;11.156;2023-03-23T00:34:31;4.13;;;1.65;;
15273;SDS011;7738;49.532;11.156;2023-03-23T00:37:01;4.90;;;1.95;;
15273;SDS011;7738;49.532;11.156;2023-03-23T00:39:34;4.55;;;1.88;;
15273;SDS011;7738;49.532;11.156;2023-03-23T00:42:11;2.40;;;1.70;;
15273;SDS011;7738;49.532;11.156;2023-03-23T00:44:43;6.00;;;1.95;;
15273;SDS011;7738;49.532;11.156;2023-03-23T00:47:13;2.63;;;1.30;;
15273;SDS011;7738;49.532;11.156;2023-03-23T00:49:44;3.67;;;1.30;;
15273;SDS011;7738;49.532;11.156;2023-03-23T00:52:14;3.25;;;1.40;;
15273;SDS011;7738;49.532;11.156;2023-03-23T00:54:47;2.40;;;1.10;;
15273;SDS011;7738;49.532;11.156;2023-03-23T00:57:18;3.75;;;1.50;;
15273;SDS011;7738;49.532;11.156;2023-03-23T00:59:50;2.00;;;1.30;;
15273;SDS011;7738;49.532;11.156;2023-03-23T01:02:31;3.40;;;1.30;;
15273;SDS011;7738;49.532;11.156;2023-03-23T01:05:03;3.20;;;1.63;;
15273;SDS011;7738;49.532;11.156;2023-03-23T01:07:34;3.75;;;1.35;;
15273;SDS011;7738;49.532;11.156;2023-03-23T01:10:10;2.65;;;1.17;;
15273;SDS011;7738;49.532;11.156;2023-03-23T01:12:46;1.90;;;1.02;;
15273;SDS011;7738;49.532;11.156;2023-03-23T01:15:17;2.92;;;1.42;;
15273;SDS011;7738;49.532;11.156;2023-03-23T01:17:48;4.00;;;1.30;;
15273;SDS011;7738;49.532;11.156;2023-03-23T01:20:18;1.40;;;1.20;;
15273;SDS011;7738;49.532;11.156;2023-03-23T01:22:49;2.55;;;1.00;;
15273;SDS011;7738;49.532;11.156;2023-03-23T01:25:22;2.90;;;1.67;;
15273;SDS011;7738;49.532;11.156;2023-03-23T01:27:52;1.70;;;1.33;;
15273;SDS011;7738;49.532;11.156;2023-03-23T01:30:23;2.03;;;1.40;;
15273;SDS011;7738;49.532;11.156;2023-03-23T01:32:54;3.13;;;1.45;;
15273;SDS011;7738;49.532;11.156;2023-03-23T01:35:25;1.77;;;1.15;;
15273;SDS011;7738;49.532;11.156;2023-03-23T01:37:56;2.60;;;1.35;;
15273;SDS011;7738;49.532;11.156;2023-03-23T01:40:29;2.20;;;0.98;;
15273;SDS011;7738;49.532;11.156;2023-03-23T01:42:59;3.05;;;1.70;;
15273;SDS011;7738;49.532;11.156;2023-03-23T01:45:31;3.10;;;1.48;;
15273;SDS011;7738;49.532;11.156;2023-03-23T01:48:07;3.50;;;1.67;;
15273;SDS011;7738;49.532;11.156;2023-03-23T01:50:53;3.45;;;1.80;;
15273;SDS011;7738;49.532;11.156;2023-03-23T01:53:30;3.97;;;1.40;;
15273;SDS011;7738;49.532;11.156;2023-03-23T01:56:07;3.35;;;1.45;;
15273;SDS011;7738;49.532;11.156;2023-03-23T01:58:39;7.10;;;1.50;;
15273;SDS011;7738;49.532;11.156;2023-03-23T02:01:11;2.28;;;1.25;;
15273;SDS011;7738;49.532;11.156;2023-03-23T02:03:44;3.83;;;1.58;;
15273;SDS011;7738;49.532;11.156;2023-03-23T02:06:16;4.22;;;1.40;;
15273;SDS011;7738;49.532;11.156;2023-03-23T02:09:06;2.00;;;1.25;;
15273;SDS011;7738;49.532;11.156;2023-03-23T02:11:40;2.80;;;1.50;;
15273;SDS011;7738;49.532;11.156;2023-03-23T02:14:10;5.07;;;1.47;;
15273;SDS011;7738;49.532;11.156;2023-03-23T02:16:43;2.50;;;1.40;;
15273;SDS011;7738;49.532;11.156;2023-03-23T02:30:58;3.97;;;1.30;;
15273;SDS011;7738;49.532;11.156;2023-03-23T02:33:41;1.90;;;1.17;;
15273;SDS011;7738;49.532;11.156;2023-03-23T02:36:19;3.00;;;1.20;;
15273;SDS011;7738;49.532;11.156;2023-03-23T02:38:55;5.22;;;1.58;;
15273;SDS011;7738;49.532;11.156;2023-03-23T02:41:30;3.33;;;1.40;;
15273;SDS011;7738;49.532;11.156;2023-03-23T02:44:06;1.92;;;1.20;;
15273;SDS011;7738;49.532;11.156;2023-03-23T02:46:38;2.10;;;1.05;;
15273;SDS011;7738;49.532;11.156;2023-03-23T02:49:12;2.42;;;1.20;;
15273;SDS011;7738;49.532;11.156;2023-03-23T02:51:45;3.10;;;1.35;;
15273;SDS011;7738;49.532;11.156;2023-03-23T02:54:17;2.63;;;1.13;;
15273;SDS011;7738;49.532;11.156;2023-03-23T02:56:54;3.33;;;1.20;;
15273;SDS011;7738;49.532;11.156;2023-03-23T02:59:28;2.50;;;1.20;;
15273;SDS011;7738;49.532;11.156;2023-03-23T03:02:04;2.33;;;0.98;;
15273;SDS011;7738;49.532;11.156;2023-03-23T03:04:39;1.75;;;1.08;;
15273;SDS011;7738;49.532;11.156;2023-03-23T03:07:19;1.95;;;0.80;;
15273;SDS011;7738;49.532;11.156;2023-03-23T03:10:04;3.20;;;1.00;;
15273;SDS011;7738;49.532;11.156;2023-03-23T03:12:44;1.58;;;0.82;;
15273;SDS011;7738;49.532;11.156;2023-03-23T03:15:22;0.85;;;0.60;;
15273;SDS011;7738;49.532;11.156;2023-03-23T03:17:59;1.63;;;0.88;;
15273;SDS011;7738;49.532;11.156;2023-03-23T03:20:40;1.63;;;0.85;;
15273;SDS011;7738;49.532;11.156;2023-03-23T03:23:14;3.55;;;0.80;;
15273;SDS011;7738;49.532;11.156;2023-03-23T03:25:46;1.70;;;1.05;;
15273;SDS011;7738;49.532;11.156;2023-03-23T03:28:25;3.08;;;1.08;;
15273;SDS011;7738;49.532;11.156;2023-03-23T03:30:57;2.33;;;1.35;;
15273;SDS011;7738;49.532;11.156;2023-03-23T03:33:30;2.97;;;0.93;;
15273;SDS011;7738;49.532;11.156;2023-03-23T03:36:04;1.65;;;0.85;;
15273;SDS011;7738;49.532;11.156;2023-03-23T03:41:13;4.13;;;1.10;;
15273;SDS011;7738;49.532;11.156;2023-03-23T03:43:45;3.40;;;0.52;;
15273;SDS011;7738;49.532;11.156;2023-03-23T03:46:16;3.13;;;0.88;;
15273;SDS011;7738;49.532;11.156;2023-03-23T03:48:46;1.45;;;0.73;;
15273;SDS011;7738;49.532;11.156;2023-03-23T03:51:22;2.45;;;1.05;;
15273;SDS011;7738;49.532;11.156;2023-03-23T03:53:53;1.92;;;0.75;;
15273;SDS011;7738;49.532;11.156;2023-03-23T03:56:24;2.58;;;0.82;;
15273;SDS011;7738;49.532;11.156;2023-03-23T03:59:07;3.38;;;0.80;;
15273;SDS011;7738;49.532;11.156;2023-03-23T04:02:07;1.33;;;0.73;;
15273;SDS011;7738;49.532;11.156;2023-03-23T04:04:40;2.17;;;1.07;;
15273;SDS011;7738;49.532;11.156;2023-03-23T04:07:14;2.35;;;0.90;;
15273;SDS011;7738;49.532;11.156;2023-03-23T04:09:45;1.52;;;0.80;;
15273;SDS011;7738;49.532;11.156;2023-03-23T04:12:19;0.95;;;0.45;;
15273;SDS011;7738;49.532;11.156;2023-03-23T04:14:55;0.95;;;0.63;;
15273;SDS011;7738;49.532;11.156;2023-03-23T04:17:34;5.40;;;0.95;;
15273;SDS011;7738;49.532;11.156;2023-03-23T04:20:08;2.72;;;1.02;;
15273;SDS011;7738;49.532;11.156;2023-03-23T04:23:00;2.75;;;1.02;;
15273;SDS011;7738;49.532;11.156;2023-03-23T04:25:32;4.70;;;0.98;;
15273;SDS011;7738;49.532;11.156;2023-03-23T04:28:04;1.45;;;0.80;;
15273;SDS011;7738;49.532;11.156;2023-03-23T04:30:45;1.42;;;0.75;;
15273;SDS011;7738;49.532;11.156;2023-03-23T04:33:20;1.83;;;0.73;;
15273;SDS011;7738;49.532;11.156;2023-03-23T04:36:11;2.03;;;0.68;;
15273;SDS011;7738;49.532;11.156;2023-03-23T04:38:56;2.97;;;0.63;;
15273;SDS011;7738;49.532;11.156;2023-03-23T04:41:27;0.82;;;0.40;;
15273;SDS011;7738;49.532;11.156;2023-03-23T04:44:36;2.58;;;1.02;;
15273;SDS011;7738;49.532;11.156;2023-03-23T04:47:11;2.30;;;0.90;;
15273;SDS011;7738;49.532;11.156;2023-03-23T04:49:51;1.20;;;0.40;;
15273;SDS011;7738;49.532;11.156;2023-03-23T04:52:28;3.53;;;0.63;;
15273;SDS011;7738;49.532;11.156;2023-03-23T04:57:38;1.80;;;0.80;;
15273;SDS011;7738;49.532;11.156;2023-03-23T05:00:27;2.30;;;0.85;;
15273;SDS011;7738;49.532;11.156;2023-03-23T05:02:57;0.88;;;0.50;;
15273;SDS011;7738;49.532;11.156;2023-03-23T05:05:29;1.90;;;0.60;;
15273;SDS011;7738;49.532;11.156;2023-03-23T05:08:05;1.75;;;0.68;;
15273;SDS011;7738;49.532;11.156;2023-03-23T05:10:41;2.15;;;0.80;;
15273;SDS011;7738;49.532;11.156;2023-03-23T05:13:19;1.27;;;0.50;;
15273;SDS011;7738;49.532;11.156;2023-03-23T05:15:53;0.70;;;0.28;;
15273;SDS011;7738;49.532;11.156;2023-03-23T05:18:24;1.95;;;0.30;;
15273;SDS011;7738;49.532;11.156;2023-03-23T05:20:58;4.75;;;0.95;;
15273;SDS011;7738;49.532;11.156;2023-03-23T05:23:34;1.25;;;0.80;;
15273;SDS011;7738;49.532;11.156;2023-03-23T05:26:16;0.93;;;0.47;;
15273;SDS011;7738;49.532;11.156;2023-03-23T05:28:47;2.13;;;0.57;;
15273;SDS011;7738;49.532;11.156;2023-03-23T05:31:23;1.33;;;0.50;;
15273;SDS011;7738;49.532;11.156;2023-03-23T05:33:53;1.30;;;0.55;;
15273;SDS011;7738;49.532;11.156;2023-03-23T05:36:28;1.05;;;0.57;;
15273;SDS011;7738;49.532;11.156;2023-03-23T05:39:08;1.95;;;0.77;;
15273;SDS011;7738;49.532;11.156;2023-03-23T05:41:56;1.45;;;0.40;;
15273;SDS011;7738;49.532;11.156;2023-03-23T05:44:39;1.40;;;0.60;;
15273;SDS011;7738;49.532;11.156;2023-03-23T05:47:10;1.65;;;0.60;;
15273;SDS011;7738;49.532;11.156;2023-03-23T05:49:46;2.10;;;0.77;;
15273;SDS011;7738;49.532;11.156;2023-03-23T05:52:18;2.10;;;0.60;;
15273;SDS011;7738;49.532;11.156;2023-03-23T05:54:51;1.33;;;0.55;;
15273;SDS011;7738;49.532;11.156;2023-03-23T05:57:25;1.23;;;0.60;;
15273;SDS011;7738;49.532;11.156;2023-03-23T06:00:02;4.05;;;0.60;;
15273;SDS011;7738;49.532;11.156;2023-03-23T06:02:38;1.92;;;0.60;;
15273;SDS011;7738;49.532;11.156;2023-03-23T06:05:14;1.25;;;0.60;;
15273;SDS011;7738;49.532;11.156;2023-03-23T06:07:51;1.52;;;0.60;;
15273;SDS011;7738;49.532;11.156;2023-03-23T06:10:21;1.90;;;0.50;;
15273;SDS011;7738;49.532;11.156;2023-03-23T06:12:58;1.77;;;0.50;;
15273;SDS011;7738;49.532;11.156;2023-03-23T06:15:36;3.25;;;0.68;;
15273;SDS011;7738;49.532;11.156;2023-03-23T06:18:25;1.70;;;0.75;;
15273;SDS011;7738;49.532;11.156;2023-03-23T06:21:11;1.75;;;0.70;;
15273;SDS011;7738;49.532;11.156;2023-03-23T06:23:53;2.58;;;0.60;;
15273;SDS011;7738;49.532;11.156;2023-03-23T06:26:28;1.52;;;0.75;;
15273;SDS011;7738;49.532;11.156;2023-03-23T06:29:06;2.58;;;0.80;;
15273;SDS011;7738;49.532;11.156;2023-03-23T06:31:45;1.92;;;0.68;;
15273;SDS011;7738;49.532;11.156;2023-03-23T06:34:19;1.48;;;0.57;;
15273;SDS011;7738;49.532;11.156;2023-03-23T06:37:13;1.45;;;0.70;;
15273;SDS011;7738;49.532;11.156;2023-03-23T06:40:21;1.05;;;0.73;;
15273;SDS011;7738;49.532;11.156;2023-03-23T06:42:54;2.45;;;0.90;;
15273;SDS011;7738;49.532;11.156;2023-03-23T06:45:46;1.85;;;0.68;;
15273;SDS011;7738;49.532;11.156;2023-03-23T06:48:35;1.58;;;1.05;;
15273;SDS011;7738;49.532;11.156;2023-03-23T06:51:06;1.40;;;0.85;;
15273;SDS011;7738;49.532;11.156;2023-03-23T06:53:38;2.13;;;0.88;;
15273;SDS011;7738;49.532;11.156;2023-03-23T06:56:12;1.17;;;0.73;;
15273;SDS011;7738;49.532;11.156;2023-03-23T06:58:42;2.28;;;0.88;;
15273;SDS011;7738;49.532;11.156;2023-03-23T07:01:16;4.07;;;1.00;;
15273;SDS011;7738;49.532;11.156;2023-03-23T07:03:55;3.67;;;0.90;;
15273;SDS011;7738;49.532;11.156;2023-03-23T07:06:38;1.77;;;0.95;;
15273;SDS011;7738;49.532;11.156;2023-03-23T07:09:08;1.95;;;1.10;;
15273;SDS011;7738;49.532;11.156;2023-03-23T07:11:39;2.35;;;0.75;;
15273;SDS011;7738;49.532;11.156;2023-03-23T07:14:19;2.28;;;1.17;;
15273;SDS011;7738;49.532;11.156;2023-03-23T07:16:53;2.10;;;0.90;;
15273;SDS011;7738;49.532;11.156;2023-03-23T07:19:24;3.93;;;0.93;;
15273;SDS011;7738;49.532;11.156;2023-03-23T07:21:54;6.55;;;1.73;;
15273;SDS011;7738;49.532;11.156;2023-03-23T07:24:25;2.38;;;0.90;;
15273;SDS011;7738;49.532;11.156;2023-03-23T07:27:06;2.00;;;1.00;;
15273;SDS011;7738;49.532;11.156;2023-03-23T07:29:39;2.05;;;1.05;;
15273;SDS011;7738;49.532;11.156;2023-03-23T07:32:17;2.55;;;1.00;;
15273;SDS011;7738;49.532;11.156;2023-03-23T07:34:47;4.13;;;1.17;;
15273;SDS011;7738;49.532;11.156;2023-03-23T07:37:41;3.33;;;0.83;;
15273;SDS011;7738;49.532;11.156;2023-03-23T07:40:12;4.18;;;1.38;;
15273;SDS011;7738;49.532;11.156;2023-03-23T07:42:51;4.60;;;1.20;;
15273;SDS011;7738;49.532;11.156;2023-03-23T07:45:29;3.50;;;0.95;;
15273;SDS011;7738;49.532;11.156;2023-03-23T07:48:02;2.30;;;0.90;;
15273;SDS011;7738;49.532;11.156;2023-03-23T07:50:46;3.78;;;1.75;;
15273;SDS011;7738;49.532;11.156;2023-03-23T07:53:16;2.13;;;1.08;;
15273;SDS011;7738;49.532;11.156;2023-03-23T07:55:55;3.20;;;1.30;;
15273;SDS011;7738;49.532;11.156;2023-03-23T07:58:54;1.38;;;1.05;;
15273;SDS011;7738;49.532;11.156;2023-03-23T08:01:24;2.17;;;1.23;;
15273;SDS011;7738;49.532;11.156;2023-03-23T08:04:17;4.30;;;1.30;;
15273;SDS011;7738;49.532;11.156;2023-03-23T08:07:05;5.30;;;1.40;;
15273;SDS011;7738;49.532;11.156;2023-03-23T08:09:45;3.83;;;1.45;;
15273;SDS011;7738;49.532;11.156;2023-03-23T08:12:39;2.83;;;1.30;;
15273;SDS011;7738;49.532;11.156;2023-03-23T08:15:28;8.63;;;1.48;;
15273;SDS011;7738;49.532;11.156;2023-03-23T08:18:26;2.35;;;1.50;;
15273;SDS011;7738;49.532;11.156;2023-03-23T08:21:24;1.90;;;1.15;;
15273;SDS011;7738;49.532;11.156;2023-03-23T08:24:10;1.92;;;1.20;;
15273;SDS011;7738;49.532;11.156;2023-03-23T08:26:55;4.88;;;1.15;;
15273;SDS011;7738;49.532;11.156;2023-03-23T08:29:43;3.65;;;1.55;;
15273;SDS011;7738;49.532;11.156;2023-03-23T08:32:32;3.00;;;1.45;;
15273;SDS011;7738;49.532;11.156;2023-03-23T08:35:15;4.30;;;1.48;;
15273;SDS011;7738;49.532;11.156;2023-03-23T08:38:07;5.20;;;1.63;;
15273;SDS011;7738;49.532;11.156;2023-03-23T08:41:01;3.17;;;1.30;;
15273;SDS011;7738;49.532;11.156;2023-03-23T08:43:52;3.40;;;1.67;;
15273;SDS011;7738;49.532;11.156;2023-03-23T08:46:41;2.45;;;1.70;;
15273;SDS011;7738;49.532;11.156;2023-03-23T08:49:25;2.28;;;1.35;;
15273;SDS011;7738;49.532;11.156;2023-03-23T08:52:26;3.47;;;1.83;;
15273;SDS011;7738;49.532;11.156;2023-03-23T08:58:16;4.68;;;3.03;;
15273;SDS011;7738;49.532;11.156;2023-03-23T09:01:12;3.65;;;2.40;;
15273;SDS011;7738;49.532;11.156;2023-03-23T09:03:42;4.25;;;2.30;;
15273;SDS011;7738;49.532;11.156;2023-03-23T09:06:32;3.15;;;1.77;;
15273;SDS011;7738;49.532;11.156;2023-03-23T09:09:03;4.20;;;1.77;;
15273;SDS011;7738;49.532;11.156;2023-03-23T09:11:38;6.30;;;2.03;;
15273;SDS011;7738;49.532;11.156;2023-03-23T09:14:08;4.30;;;1.80;;
15273;SDS011;7738;49.532;11.156;2023-03-23T09:16:39;3.58;;;1.73;;
15273;SDS011;7738;49.532;11.156;2023-03-23T09:19:09;3.25;;;1.92;;
15273;SDS011;7738;49.532;11.156;2023-03-23T09:21:40;3.65;;;2.30;;
15273;SDS011;7738;49.532;11.156;2023-03-23T09:24:11;2.53;;;1.48;;
15273;SDS011;7738;49.532;11.156;2023-03-23T09:26:45;2.25;;;1.50;;
15273;SDS011;7738;49.532;11.156;2023-03-23T09:29:15;4.72;;;1.88;;
15273;SDS011;7738;49.532;11.156;2023-03-23T09:31:45;4.65;;;2.17;;
15273;SDS011;7738;49.532;11.156;2023-03-23T09:34:15;3.67;;;1.65;;
15273;SDS011;7738;49.532;11.156;2023-03-23T09:36:45;2.40;;;1.83;;
15273;SDS011;7738;49.532;11.156;2023-03-23T09:39:15;4.50;;;1.80;;
15273;SDS011;7738;49.532;11.156;2023-03-23T09:44:52;3.25;;;1.55;;
15273;SDS011;7738;49.532;11.156;2023-03-23T09:47:41;3.65;;;1.58;;
15273;SDS011;7738;49.532;11.156;2023-03-23T09:50:18;4.03;;;2.20;;
15273;SDS011;7738;49.532;11.156;2023-03-23T09:52:53;3.22;;;1.48;;
15273;SDS011;7738;49.532;11.156;2023-03-23T09:55:25;2.42;;;1.23;;
15273;SDS011;7738;49.532;11.156;2023-03-23T09:58:01;3.03;;;1.27;;
15273;SDS011;7738;49.532;11.156;2023-03-23T10:00:39;3.60;;;1.75;;
15273;SDS011;7738;49.532;11.156;2023-03-23T10:03:13;3.90;;;1.65;;
15273;SDS011;7738;49.532;11.156;2023-03-23T10:05:46;2.13;;;1.10;;
15273;SDS011;7738;49.532;11.156;2023-03-23T10:08:18;2.38;;;1.52;;
15273;SDS011;7738;49.532;11.156;2023-03-23T10:10:54;4.45;;;1.70;;
15273;SDS011;7738;49.532;11.156;2023-03-23T10:13:34;3.20;;;1.60;;
15273;SDS011;7738;49.532;11.156;2023-03-23T10:16:15;2.95;;;1.30;;
15273;SDS011;7738;49.532;11.156;2023-03-23T10:18:52;3.42;;;2.08;;
15273;SDS011;7738;49.532;11.156;2023-03-23T10:21:27;1.50;;;1.08;;
15273;SDS011;7738;49.532;11.156;2023-03-23T10:23:59;1.95;;;1.02;;
15273;SDS011;7738;49.532;11.156;2023-03-23T10:26:37;3.85;;;1.35;;
15273;SDS011;7738;49.532;11.156;2023-03-23T10:29:20;2.90;;;1.42;;
15273;SDS011;7738;49.532;11.156;2023-03-23T10:31:55;3.63;;;1.08;;
15273;SDS011;7738;49.532;11.156;2023-03-23T10:34:30;2.17;;;1.23;;
15273;SDS011;7738;49.532;11.156;2023-03-23T10:37:04;1.55;;;1.33;;
15273;SDS011;7738;49.532;11.156;2023-03-23T10:39:43;3.08;;;0.85;;
15273;SDS011;7738;49.532;11.156;2023-03-23T10:42:24;3.42;;;2.20;;
15273;SDS011;7738;49.532;11.156;2023-03-23T10:44:59;2.03;;;1.10;;
15273;SDS011;7738;49.532;11.156;2023-03-23T10:50:12;2.35;;;1.02;;
15273;SDS011;7738;49.532;11.156;2023-03-23T10:52:45;1.95;;;0.95;;
15273;SDS011;7738;49.532;11.156;2023-03-23T10:55:15;2.47;;;1.00;;
15273;SDS011;7738;49.532;11.156;2023-03-23T10:57:59;2.85;;;0.82;;
15273;SDS011;7738;49.532;11.156;2023-03-23T11:00:39;2.60;;;0.85;;
15273;SDS011;7738;49.532;11.156;2023-03-23T11:03:21;1.88;;;0.98;;
15273;SDS011;7738;49.532;11.156;2023-03-23T11:06:00;2.22;;;0.52;;
15273;SDS011;7738;49.532;11.156;2023-03-23T11:08:32;2.08;;;0.50;;
15273;SDS011;7738;49.532;11.156;2023-03-23T11:11:08;1.08;;;0.45;;
15273;SDS011;7738;49.532;11.156;2023-03-23T11:13:43;2.03;;;0.55;;
15273;SDS011;7738;49.532;11.156;2023-03-23T11:16:25;1.08;;;0.38;;
15273;SDS011;7738;49.532;11.156;2023-03-23T11:18:57;3.45;;;0.68;;
15273;SDS011;7738;49.532;11.156;2023-03-23T11:21:28;1.55;;;0.20;;
15273;SDS011;7738;49.532;11.156;2023-03-23T11:24:01;1.58;;;0.50;;
15273;SDS011;7738;49.532;11.156;2023-03-23T11:26:35;1.42;;;0.43;;
15273;SDS011;7738;49.532;11.156;2023-03-23T11:29:22;2.05;;;0.52;;
15273;SDS011;7738;49.532;11.156;2023-03-23T11:32:02;0.93;;;0.50;;
15273;SDS011;7738;49.532;11.156;2023-03-23T11:34:36;1.45;;;0.60;;
15273;SDS011;7738;49.532;11.156;2023-03-23T11:37:11;1.45;;;0.68;;
15273;SDS011;7738;49.532;11.156;2023-03-23T11:39:46;1.95;;;0.90;;
15273;SDS011;7738;49.532;11.156;2023-03-23T11:42:18;1.92;;;0.63;;
15273;SDS011;7738;49.532;11.156;2023-03-23T11:44:49;0.73;;;0.38;;
15273;SDS011;7738;49.532;11.156;2023-03-23T11:47:24;1.23;;;0.50;;
15273;SDS011;7738;49.532;11.156;2023-03-23T11:50:04;1.58;;;0.65;;
15273;SDS011;7738;49.532;11.156;2023-03-23T11:52:40;1.45;;;0.70;;
15273;SDS011;7738;49.532;11.156;2023-03-23T11:55:15;2.75;;;0.90;;
15273;SDS011;7738;49.532;11.156;2023-03-23T11:57:49;2.47;;;0.60;;
15273;SDS011;7738;49.532;11.156;2023-03-23T12:00:20;0.73;;;0.45;;
15273;SDS011;7738;49.532;11.156;2023-03-23T12:05:45;1.80;;;0.95;;
15273;SDS011;7738;49.532;11.156;2023-03-23T12:08:22;1.10;;;0.45;;
15273;SDS011;7738;49.532;11.156;2023-03-23T12:11:11;1.13;;;0.63;;
15273;SDS011;7738;49.532;11.156;2023-03-23T12:13:53;2.50;;;0.80;;
15273;SDS011;7738;49.532;11.156;2023-03-23T12:16:32;2.88;;;0.50;;
15273;SDS011;7738;49.532;11.156;2023-03-23T12:19:24;0.93;;;0.25;;
15273;SDS011;7738;49.532;11.156;2023-03-23T12:22:02;1.10;;;0.50;;
15273;SDS011;7738;49.532;11.156;2023-03-23T12:24:43;0.88;;;0.35;;
15273;SDS011;7738;49.532;11.156;2023-03-23T12:27:24;0.98;;;0.55;;
15273;SDS011;7738;49.532;11.156;2023-03-23T12:32:54;2.10;;;0.85;;
15273;SDS011;7738;49.532;11.156;2023-03-23T12:35:36;1.38;;;0.65;;
15273;SDS011;7738;49.532;11.156;2023-03-23T12:38:22;1.67;;;0.77;;
15273;SDS011;7738;49.532;11.156;2023-03-23T12:41:09;6.93;;;0.82;;
15273;SDS011;7738;49.532;11.156;2023-03-23T12:43:48;2.75;;;0.70;;
15273;SDS011;7738;49.532;11.156;2023-03-23T12:46:37;1.35;;;0.38;;
15273;SDS011;7738;49.532;11.156;2023-03-23T12:49:29;2.05;;;0.70;;
15273;SDS011;7738;49.532;11.156;2023-03-23T12:52:08;1.58;;;0.43;;
15273;SDS011;7738;49.532;11.156;2023-03-23T12:54:44;1.77;;;0.50;;
15273;SDS011;7738;49.532;11.156;2023-03-23T12:57:21;1.35;;;0.30;;
15273;SDS011;7738;49.532;11.156;2023-03-23T12:59:59;1.48;;;0.40;;
15273;SDS011;7738;49.532;11.156;2023-03-23T13:02:39;0.73;;;0.35;;
15273;SDS011;7738;49.532;11.156;2023-03-23T13:05:24;1.25;;;0.40;;
15273;SDS011;7738;49.532;11.156;2023-03-23T13:08:01;1.30;;;0.38;;
15273;SDS011;7738;49.532;11.156;2023-03-23T13:10:36;0.95;;;0.35;;
15273;SDS011;7738;49.532;11.156;2023-03-23T13:13:11;1.88;;;0.40;;
15273;SDS011;7738;49.532;11.156;2023-03-23T13:15:49;0.88;;;0.30;;
15273;SDS011;7738;49.532;11.156;2023-03-23T13:18:27;2.65;;;0.28;;
15273;SDS011;7738;49.532;11.156;2023-03-23T13:21:07;0.85;;;0.40;;
15273;SDS011;7738;49.532;11.156;2023-03-23T13:23:47;2.22;;;0.30;;
15273;SDS011;7738;49.532;11.156;2023-03-23T13:26:20;2.58;;;0.50;;
15273;SDS011;7738;49.532;11.156;2023-03-23T13:28:55;0.90;;;0.40;;
15273;SDS011;7738;49.532;11.156;2023-03-23T13:31:29;1.58;;;0.30;;
15273;SDS011;7738;49.532;11.156;2023-03-23T13:34:03;1.25;;;0.50;;
15273;SDS011;7738;49.532;11.156;2023-03-23T13:36:35;1.05;;;0.30;;
15273;SDS011;7738;49.532;11.156;2023-03-23T13:39:18;0.80;;;0.30;;
15273;SDS011;7738;49.532;11.156;2023-03-23T13:41:59;2.47;;;0.63;;
15273;SDS011;7738;49.532;11.156;2023-03-23T13:44:41;1.42;;;0.43;;
15273;SDS011;7738;49.532;11.156;2023-03-23T13:47:16;1.60;;;0.45;;
15273;SDS011;7738;49.532;11.156;2023-03-23T13:50:00;1.73;;;0.20;;
15273;SDS011;7738;49.532;11.156;2023-03-23T13:55:19;2.17;;;0.45;;
15273;SDS011;7738;49.532;11.156;2023-03-23T13:58:09;1.02;;;0.20;;
15273;SDS011;7738;49.532;11.156;2023-03-23T14:00:45;1.63;;;0.40;;
15273;SDS011;7738;49.532;11.156;2023-03-23T14:03:19;2.78;;;0.60;;
15273;SDS011;7738;49.532;11.156;2023-03-23T14:06:01;1.67;;;0.52;;
15273;SDS011;7738;49.532;11.156;2023-03-23T14:08:53;1.92;;;0.63;;
15273;SDS011;7738;49.532;11.156;2023-03-23T14:11:27;1.27;;;0.40;;
15273;SDS011;7738;49.532;11.156;2023-03-23T14:14:00;1.42;;;0.50;;
15273;SDS011;7738;49.532;11.156;2023-03-23T14:16:36;2.33;;;0.68;;
15273;SDS011;7738;49.532;11.156;2023-03-23T14:19:14;2.08;;;0.95;;
15273;SDS011;7738;49.532;11.156;2023-03-23T14:21:51;3.03;;;0.47;;
15273;SDS011;7738;49.532;11.156;2023-03-23T14:24:23;1.63;;;0.60;;
15273;SDS011;7738;49.532;11.156;2023-03-23T14:27:08;0.95;;;0.63;;
15273;SDS011;7738;49.532;11.156;2023-03-23T14:29:39;1.70;;;0.45;;
15273;SDS011;7738;49.532;11.156;2023-03-23T14:32:11;2.10;;;0.70;;
15273;SDS011;7738;49.532;11.156;2023-03-23T14:34:46;1.55;;;0.43;;
15273;SDS011;7738;49.532;11.156;2023-03-23T14:37:17;2.72;;;0.47;;
15273;SDS011;7738;49.532;11.156;2023-03-23T14:39:48;1.38;;;0.50;;
15273;SDS011;7738;49.532;11.156;2023-03-23T14:42:23;2.72;;;0.55;;
15273;SDS011;7738;49.532;11.156;2023-03-23T14:44:56;1.20;;;0.52;;
15273;SDS011;7738;49.532;11.156;2023-03-23T14:47:30;1.58;;;0.70;;
15273;SDS011;7738;49.532;11.156;2023-03-23T14:50:03;2.28;;;0.30;;
15273;SDS011;7738;49.532;11.156;2023-03-23T14:52:37;1.63;;;0.70;;
15273;SDS011;7738;49.532;11.156;2023-03-23T14:55:10;1.52;;;0.68;;
15273;SDS011;7738;49.532;11.156;2023-03-23T14:57:44;4.13;;;0.73;;
15273;SDS011;7738;49.532;11.156;2023-03-23T15:00:15;2.70;;;0.50;;
15273;SDS011;7738;49.532;11.156;2023-03-23T15:02:47;1.10;;;0.50;;
15273;SDS011;7738;49.532;11.156;2023-03-23T15:05:23;0.93;;;0.45;;
15273;SDS011;7738;49.532;11.156;2023-03-23T15:08:00;1.30;;;0.52;;
15273;SDS011;7738;49.532;11.156;2023-03-23T15:10:32;1.15;;;0.35;;
15273;SDS011;7738;49.532;11.156;2023-03-23T15:13:05;3.25;;;0.73;;
15273;SDS011;7738;49.532;11.156;2023-03-23T15:15:38;1.50;;;0.60;;
15273;SDS011;7738;49.532;11.156;2023-03-23T15:18:14;2.45;;;0.50;;
15273;SDS011;7738;49.532;11.156;2023-03-23T15:20:56;1.00;;;0.32;;
15273;SDS011;7738;49.532;11.156;2023-03-23T15:23:28;1.63;;;0.70;;
15273;SDS011;7738;49.532;11.156;2023-03-23T15:26:02;1.58;;;0.57;;
15273;SDS011;7738;49.532;11.156;2023-03-23T15:28:41;1.10;;;0.40;;
15273;SDS011;7738;49.532;11.156;2023-03-23T15:31:11;2.30;;;0.73;;
15273;SDS011;7738;49.532;11.156;2023-03-23T15:33:41;2.25;;;0.90;;
15273;SDS011;7738;49.532;11.156;2023-03-23T15:36:15;1.23;;;0.65;;
15273;SDS011;7738;49.532;11.156;2023-03-23T15:38:46;1.48;;;0.57;;
15273;SDS011;7738;49.532;11.156;2023-03-23T15:41:21;1.10;;;0.63;;
15273;SDS011;7738;49.532;11.156;2023-03-23T15:43:57;2.95;;;0.43;;
15273;SDS011;7738;49.532;11.156;2023-03-23T15:46:28;1.15;;;0.57;;
15273;SDS011;7738;49.532;11.156;2023-03-23T15:49:06;1.60;;;0.70;;
15273;SDS011;7738;49.532;11.156;2023-03-23T15:51:40;2.17;;;0.80;;
15273;SDS011;7738;49.532;11.156;2023-03-23T15:54:12;1.35;;;0.82;;
15273;SDS011;7738;49.532;11.156;2023-03-23T15:56:43;3.85;;;1.25;;
15273;SDS011;7738;49.532;11.156;2023-03-23T15:59:16;3.17;;;0.55;;
15273;SDS011;7738;49.532;11.156;2023-03-23T16:01:46;2.05;;;0.80;;
15273;SDS011;7738;49.532;11.156;2023-03-23T16:04:17;2.05;;;0.80;;
15273;SDS011;7738;49.532;11.156;2023-03-23T16:06:48;1.80;;;0.77;;
15273;SDS011;7738;49.532;11.156;2023-03-23T16:09:20;1.92;;;0.85;;
15273;SDS011;7738;49.532;11.156;2023-03-23T16:11:50;3.10;;;0.90;;
15273;SDS011;7738;49.532;11.156;2023-03-23T16:14:23;1.80;;;0.60;;
15273;SDS011;7738;49.532;11.156;2023-03-23T16:16:53;1.67;;;0.77;;
15273;SDS011;7738;49.532;11.156;2023-03-23T16:19:23;2.70;;;0.80;;